Time;durP1;ratioP1;P1;durP2;ratioP2;P2;SDS_P1;SDS_P2;PMS_P1;PMS_P2;Temp;Humidity;BMP_temperature;BMP_pressure;BME280_temperature;BME280_humidity;BME280_pressure;Samples;Min_cycle;Max_cycle;Signal;HPM_P1;HPM_P2
2022/10/12 00:01:58;;;;;;;1.08;0.70;;;10.40;70.40;;;;;;5009274;28;20049;-69
2022/10/12 00:04:24;;;;;;;5.45;0.93;;;10.40;70.30;;;;;;5007674;28;20037;-69
2022/10/12 00:06:50;;;;;;;8.30;1.30;;;10.40;70.50;;;;;;4975698;28;20033;-69
2022/10/12 00:09:15;;;;;;;1.10;0.80;;;10.40;70.70;;;;;;5010622;28;20112;-70
2022/10/12 00:11:41;;;;;;;4.88;0.77;;;10.30;70.80;;;;;;4975930;28;20026;-69
2022/10/12 00:14:07;;;;;;;4.13;1.20;;;10.30;70.80;;;;;;5010821;28;20484;-69
2022/10/12 00:16:33;;;;;;;2.05;0.68;;;10.30;70.90;;;;;;5010612;28;20512;-69
2022/10/12 00:18:59;;;;;;;9.30;1.13;;;10.30;71.10;;;;;;4985499;28;20054;-69
2022/10/12 00:21:27;;;;;;;1.33;0.70;;;10.30;71.60;;;;;;5005732;28;20075;-70
2022/10/12 00:23:56;;;;;;;2.28;1.08;;;10.30;71.10;;;;;;4992909;28;20030;-70
2022/10/12 00:26:22;;;;;;;1.70;0.80;;;10.30;71.10;;;;;;5009996;28;20022;-69
2022/10/12 00:28:52;;;;;;;5.35;0.90;;;10.30;71.20;;;;;;5010450;28;20014;-68
2022/10/12 00:31:19;;;;;;;2.00;0.70;;;10.20;71.20;;;;;;5008030;28;20137;-68
2022/10/12 00:33:46;;;;;;;3.58;1.23;;;10.20;71.30;;;;;;5007489;28;20026;-68
2022/10/12 00:36:18;;;;;;;2.50;1.10;;;10.20;71.30;;;;;;5009766;28;20044;-69
2022/10/12 00:38:44;;;;;;;1.17;0.80;;;10.20;71.40;;;;;;5008522;28;20030;-69
2022/10/12 00:41:11;;;;;;;2.22;0.73;;;10.20;71.40;;;;;;5006685;28;20480;-68
2022/10/12 00:43:40;;;;;;;1.80;0.77;;;10.20;71.40;;;;;;5008876;28;20068;-69
2022/10/12 00:46:17;;;;;;;1.35;0.95;;;10.20;71.40;;;;;;5008913;28;20053;-69
2022/10/12 00:48:45;;;;;;;2.63;0.75;;;10.20;71.40;;;;;;5005582;28;20508;-70
2022/10/12 00:51:11;;;;;;;1.65;0.88;;;10.10;71.40;;;;;;5010135;28;20079;-68
2022/10/12 00:53:46;;;;;;;1.25;0.50;;;10.10;71.60;;;;;;5009412;28;20038;-70
2022/10/12 00:56:19;;;;;;;1.15;0.80;;;10.10;71.70;;;;;;5010235;28;20033;-69
2022/10/12 00:58:47;;;;;;;0.75;0.70;;;10.10;71.70;;;;;;5009807;28;20430;-71
2022/10/12 01:01:13;;;;;;;3.00;0.85;;;10.10;71.60;;;;;;5008092;28;20072;-71
2022/10/12 01:03:39;;;;;;;1.65;0.95;;;10.00;71.60;;;;;;5011579;28;20037;-70
2022/10/12 01:06:06;;;;;;;1.55;0.60;;;10.00;71.70;;;;;;4980968;28;20117;-70
2022/10/12 01:08:32;;;;;;;1.75;0.95;;;10.00;72.40;;;;;;5011419;28;20436;-68
2022/10/12 01:10:58;;;;;;;2.20;0.65;;;10.00;71.80;;;;;;5010210;28;20033;-68
2022/10/12 01:13:24;;;;;;;1.25;0.60;;;10.00;71.80;;;;;;5010689;28;20048;-70
2022/10/12 01:16:06;;;;;;;0.65;0.50;;;10.00;71.80;;;;;;5009700;28;20044;-67
2022/10/12 01:18:32;;;;;;;0.43;0.43;;;10.00;71.70;;;;;;5007453;28;20061;-68
2022/10/12 01:21:27;;;;;;;1.13;0.70;;;9.90;71.90;;;;;;4994417;28;20464;-68
2022/10/12 01:24:34;;;;;;;1.15;0.88;;;9.90;71.80;;;;;;5009538;28;20072;-70
2022/10/12 01:27:06;;;;;;;0.40;0.40;;;9.90;71.70;;;;;;4957115;28;20054;-69
2022/10/12 01:29:53;;;;;;;0.50;0.50;;;9.90;71.90;;;;;;5010403;28;20339;-68
2022/10/12 01:32:37;;;;;;;0.50;0.50;;;9.90;72.00;;;;;;5005463;28;20081;-68
2022/10/12 01:35:32;;;;;;;3.50;0.88;;;9.80;71.90;;;;;;5009275;28;20053;-69
2022/10/12 01:38:10;;;;;;;2.00;0.75;;;9.80;72.00;;;;;;5009556;28;20555;-69
2022/10/12 01:40:50;;;;;;;1.45;0.90;;;9.80;72.10;;;;;;5007683;28;20053;-69
2022/10/12 01:43:20;;;;;;;2.20;0.98;;;9.80;72.20;;;;;;5003946;28;20037;-69
2022/10/12 01:45:46;;;;;;;3.00;0.80;;;9.80;72.30;;;;;;5007954;28;20026;-69
2022/10/12 01:48:12;;;;;;;0.50;0.50;;;9.80;72.40;;;;;;5016651;28;20034;-68
2022/10/12 01:50:53;;;;;;;3.17;0.90;;;9.70;72.40;;;;;;4981141;28;20037;-69
2022/10/12 01:53:43;;;;;;;0.63;0.63;;;9.80;72.40;;;;;;5009896;28;20112;-68
2022/10/12 01:56:39;;;;;;;0.95;0.70;;;9.80;72.50;;;;;;5011990;28;20029;-69
2022/10/12 01:59:07;;;;;;;1.42;0.90;;;9.80;72.40;;;;;;5004845;28;20025;-68
2022/10/12 02:01:50;;;;;;;1.83;1.05;;;9.70;72.60;;;;;;5009589;28;20034;-68
2022/10/12 02:04:48;;;;;;;5.97;1.00;;;9.70;72.50;;;;;;4991266;28;20113;-68
2022/10/12 02:07:27;;;;;;;1.05;0.57;;;9.70;72.60;;;;;;5008985;28;20565;-68
2022/10/12 02:09:56;;;;;;;1.27;0.80;;;9.70;73.20;;;;;;5007060;28;20106;-69
2022/10/12 02:12:24;;;;;;;2.80;0.90;;;9.70;72.70;;;;;;5005155;28;20040;-69
2022/10/12 02:14:55;;;;;;;1.35;0.77;;;9.70;72.80;;;;;;5008778;28;20029;-71
2022/10/12 02:17:22;;;;;;;2.20;1.27;;;9.70;72.80;;;;;;5006657;28;20054;-68
2022/10/12 02:19:54;;;;;;;3.25;1.35;;;9.70;72.70;;;;;;5008692;28;20033;-67
2022/10/12 02:22:22;;;;;;;0.55;0.55;;;9.70;72.60;;;;;;5008045;28;20038;-68
2022/10/12 02:24:50;;;;;;;2.28;0.75;;;9.70;72.60;;;;;;4991182;28;20049;-69
2022/10/12 02:27:19;;;;;;;2.72;0.98;;;9.70;72.80;;;;;;4993267;28;20030;-70
2022/10/12 02:29:46;;;;;;;4.40;0.70;;;9.60;72.70;;;;;;5010104;28;20026;-70
2022/10/12 02:32:28;;;;;;;1.92;0.55;;;9.60;72.60;;;;;;5010067;28;20014;-69
2022/10/12 02:35:06;;;;;;;0.93;0.63;;;9.60;72.70;;;;;;5007603;28;20077;-69
2022/10/12 02:37:37;;;;;;;0.88;0.55;;;9.60;72.50;;;;;;5006815;28;20026;-69
2022/10/12 02:40:35;;;;;;;1.15;0.70;;;9.60;72.60;;;;;;5012199;28;20061;-69
2022/10/12 02:43:11;;;;;;;1.23;0.90;;;9.60;72.50;;;;;;4980457;28;20038;-69
2022/10/12 02:45:40;;;;;;;1.88;0.50;;;9.50;72.70;;;;;;5016458;28;20036;-70
2022/10/12 02:48:08;;;;;;;0.50;0.50;;;9.50;72.70;;;;;;5011952;28;20034;-69
2022/10/12 02:50:34;;;;;;;5.28;0.98;;;9.50;72.70;;;;;;5012904;28;20030;-70
2022/10/12 02:53:00;;;;;;;3.78;0.52;;;9.50;73.00;;;;;;5012231;28;20031;-69
2022/10/12 02:55:26;;;;;;;1.02;0.52;;;9.50;73.00;;;;;;4994482;28;20053;-70
2022/10/12 02:57:51;;;;;;;0.93;0.75;;;9.50;73.00;;;;;;5023163;28;20100;-69
2022/10/12 03:00:17;;;;;;;1.23;0.73;;;9.50;72.90;;;;;;5011271;28;20109;-70
2022/10/12 03:02:43;;;;;;;1.95;1.05;;;9.50;72.90;;;;;;5012283;28;20045;-69
2022/10/12 03:05:08;;;;;;;1.95;0.90;;;9.50;72.90;;;;;;4995849;28;20041;-69
2022/10/12 03:07:34;;;;;;;1.90;0.73;;;9.50;73.20;;;;;;4999747;28;20593;-69
2022/10/12 03:10:00;;;;;;;0.57;0.35;;;9.50;73.20;;;;;;5014616;28;20809;-69
2022/10/12 03:12:25;;;;;;;3.80;1.00;;;9.50;73.40;;;;;;5012617;28;20045;-69
2022/10/12 03:14:51;;;;;;;2.83;1.02;;;9.40;73.30;;;;;;5016015;28;20037;-68
2022/10/12 03:17:16;;;;;;;1.10;0.60;;;9.40;73.70;;;;;;5019979;28;20021;-69
2022/10/12 03:19:42;;;;;;;1.48;0.80;;;9.40;73.30;;;;;;5012568;28;20038;-70
2022/10/12 03:22:08;;;;;;;1.70;0.65;;;9.40;73.30;;;;;;4962154;28;20073;-70
2022/10/12 03:24:33;;;;;;;2.08;0.98;;;9.40;73.30;;;;;;5012254;28;20508;-68
2022/10/12 03:26:59;;;;;;;2.22;1.25;;;9.40;73.30;;;;;;5017744;28;20036;-70
2022/10/12 03:29:25;;;;;;;0.82;0.68;;;9.30;73.20;;;;;;5001092;28;20402;-70
2022/10/12 03:31:50;;;;;;;3.33;0.75;;;9.30;73.20;;;;;;5012224;28;20105;-70
2022/10/12 03:34:16;;;;;;;1.02;0.75;;;9.30;73.20;;;;;;5012061;28;20037;-69
2022/10/12 03:36:41;;;;;;;1.17;0.75;;;9.30;73.20;;;;;;5003747;28;20041;-67
2022/10/12 03:39:07;;;;;;;3.50;0.85;;;9.30;73.20;;;;;;5012291;28;20032;-68
2022/10/12 03:41:33;;;;;;;2.47;0.93;;;9.20;73.20;;;;;;5015429;28;20374;-70
2022/10/12 03:43:58;;;;;;;0.50;0.50;;;9.20;73.30;;;;;;4992446;28;20553;-70
2022/10/12 03:46:24;;;;;;;0.65;0.60;;;9.20;73.30;;;;;;4993375;28;20041;-68
2022/10/12 03:48:50;;;;;;;0.80;0.50;;;9.10;73.30;;;;;;5009069;28;20030;-68
2022/10/12 03:51:15;;;;;;;2.05;0.90;;;9.10;73.30;;;;;;4993791;28;20041;-68
2022/10/12 03:53:41;;;;;;;0.77;0.70;;;9.00;73.20;;;;;;4993776;28;20033;-68
2022/10/12 03:56:07;;;;;;;1.50;0.73;;;9.00;73.30;;;;;;4978315;28;20149;-69
2022/10/12 03:58:33;;;;;;;1.63;1.13;;;9.00;73.30;;;;;;5011857;28;20041;-68
2022/10/12 04:00:58;;;;;;;2.15;1.10;;;9.00;73.20;;;;;;5012133;28;20125;-69
2022/10/12 04:03:28;;;;;;;0.73;0.73;;;9.00;73.40;;;;;;5011134;28;20115;-69
2022/10/12 04:05:55;;;;;;;2.75;1.05;;;8.90;73.30;;;;;;5011790;28;20339;-69
2022/10/12 04:08:21;;;;;;;1.10;0.65;;;8.90;73.40;;;;;;5007801;28;20034;-70
2022/10/12 04:10:46;;;;;;;2.25;0.63;;;8.80;73.40;;;;;;5008226;28;20083;-69
2022/10/12 04:13:12;;;;;;;6.72;0.68;;;8.80;73.50;;;;;;4994183;28;20117;-69
2022/10/12 04:15:38;;;;;;;0.93;0.80;;;8.70;73.50;;;;;;5011236;28;20045;-68
2022/10/12 04:18:03;;;;;;;1.80;0.80;;;8.70;73.60;;;;;;4993986;28;20034;-68
2022/10/12 04:20:29;;;;;;;2.05;0.98;;;8.70;73.70;;;;;;5011660;28;20046;-68
2022/10/12 04:22:55;;;;;;;1.85;0.80;;;8.60;73.70;;;;;;4992575;28;20042;-69
2022/10/12 04:25:22;;;;;;;2.75;1.15;;;8.60;73.70;;;;;;5011099;28;20651;-68
2022/10/12 04:27:48;;;;;;;5.40;1.40;;;8.60;73.80;;;;;;4979361;28;20026;-68
2022/10/12 04:30:14;;;;;;;5.30;1.73;;;8.60;73.80;;;;;;5014946;28;20167;-69
2022/10/12 04:32:39;;;;;;;3.40;0.82;;;8.50;73.80;;;;;;4985936;28;20041;-69
2022/10/12 04:35:05;;;;;;;1.30;0.93;;;8.50;73.80;;;;;;4995657;28;20396;-69
2022/10/12 04:37:31;;;;;;;1.15;0.68;;;8.50;73.70;;;;;;5010576;28;20042;-68
2022/10/12 04:39:57;;;;;;;14.65;1.20;;;8.50;73.70;;;;;;5013188;28;20065;-69
2022/10/12 04:42:22;;;;;;;1.80;1.52;;;8.50;73.70;;;;;;4993770;28;20037;-68
2022/10/12 04:44:48;;;;;;;2.45;1.40;;;8.40;73.50;;;;;;5012525;28;20018;-70
2022/10/12 04:47:14;;;;;;;1.08;0.88;;;8.50;73.70;;;;;;5012344;28;20116;-68
2022/10/12 04:49:39;;;;;;;1.30;0.88;;;8.40;73.60;;;;;;4996474;28;20037;-69
2022/10/12 04:52:05;;;;;;;0.60;0.60;;;8.40;73.60;;;;;;5015978;28;20034;-68
2022/10/12 04:54:31;;;;;;;5.47;1.15;;;8.40;73.50;;;;;;4999531;28;20445;-68
2022/10/12 04:56:57;;;;;;;8.77;1.05;;;8.30;73.40;;;;;;4974705;28;20132;-68
2022/10/12 04:59:23;;;;;;;1.98;1.38;;;8.30;73.40;;;;;;4995061;28;20524;-68
2022/10/12 05:01:49;;;;;;;1.85;0.70;;;8.30;73.50;;;;;;5000471;28;20045;-68
2022/10/12 05:04:15;;;;;;;1.55;0.98;;;8.30;73.60;;;;;;5013172;28;20089;-68
2022/10/12 05:06:40;;;;;;;8.60;1.17;;;8.30;73.60;;;;;;4998832;28;20117;-69
2022/10/12 05:09:06;;;;;;;3.25;1.63;;;8.20;73.50;;;;;;5005327;28;20623;-69
2022/10/12 05:11:32;;;;;;;1.83;1.40;;;8.20;73.60;;;;;;5014766;28;20026;-69
2022/10/12 05:13:57;;;;;;;4.70;0.90;;;8.20;73.60;;;;;;4997307;28;20041;-69
2022/10/12 05:16:23;;;;;;;1.27;0.85;;;8.20;73.70;;;;;;5014900;28;20048;-68
2022/10/12 05:18:49;;;;;;;1.00;0.75;;;8.10;73.50;;;;;;5016246;28;20042;-69
2022/10/12 05:21:15;;;;;;;0.60;0.60;;;8.10;73.50;;;;;;5009960;28;20627;-68
2022/10/12 05:23:40;;;;;;;2.17;1.00;;;8.10;73.60;;;;;;4977367;28;20389;-67
2022/10/12 05:26:06;;;;;;;1.05;0.77;;;8.10;73.60;;;;;;5008606;28;20717;-69
2022/10/12 05:28:32;;;;;;;0.88;0.80;;;8.10;73.60;;;;;;5009046;28;20393;-69
2022/10/12 05:30:58;;;;;;;1.00;0.90;;;8.10;73.50;;;;;;4994961;28;20445;-69
2022/10/12 05:33:24;;;;;;;2.17;0.95;;;8.10;73.60;;;;;;5007786;28;20038;-68
2022/10/12 05:35:49;;;;;;;2.28;1.05;;;8.10;73.70;;;;;;5006984;28;20041;-68
2022/10/12 05:38:15;;;;;;;1.48;1.15;;;8.10;73.80;;;;;;5007241;28;20029;-69
2022/10/12 05:40:43;;;;;;;7.05;1.65;;;8.00;73.70;;;;;;5009510;28;20109;-70
2022/10/12 05:43:09;;;;;;;4.60;1.40;;;8.10;73.70;;;;;;5009163;28;20124;-68
2022/10/12 05:45:35;;;;;;;2.00;0.98;;;8.10;73.70;;;;;;4992361;28;20124;-69
2022/10/12 05:48:00;;;;;;;5.10;1.92;;;8.10;73.70;;;;;;5008771;28;20030;-69
2022/10/12 05:50:26;;;;;;;1.40;1.15;;;8.10;73.70;;;;;;5009678;28;20096;-69
2022/10/12 05:52:51;;;;;;;1.42;1.13;;;8.00;73.60;;;;;;5008873;28;21287;-69
2022/10/12 05:55:19;;;;;;;4.20;1.50;;;8.00;73.70;;;;;;5009001;28;20038;-69
2022/10/12 05:57:45;;;;;;;1.23;1.13;;;8.00;73.60;;;;;;4991808;28;20281;-69
2022/10/12 06:00:11;;;;;;;8.38;1.80;;;8.00;73.60;;;;;;4992202;28;20401;-69
2022/10/12 06:02:36;;;;;;;1.70;1.45;;;8.10;73.90;;;;;;5010308;28;20033;-68
2022/10/12 06:05:02;;;;;;;2.80;2.10;;;8.00;74.00;;;;;;4972331;28;20031;-69
2022/10/12 06:07:28;;;;;;;2.42;1.92;;;8.00;74.00;;;;;;5002619;28;20508;-69
2022/10/12 06:09:54;;;;;;;2.30;1.20;;;8.10;74.20;;;;;;4989933;28;20040;-69
2022/10/12 06:12:20;;;;;;;2.45;1.98;;;8.10;74.10;;;;;;5000684;28;20034;-69
2022/10/12 06:14:45;;;;;;;3.40;1.67;;;8.10;74.00;;;;;;5013582;28;20040;-68
2022/10/12 06:17:11;;;;;;;2.83;1.52;;;8.10;74.00;;;;;;5013378;28;20037;-70
2022/10/12 06:19:37;;;;;;;9.43;2.17;;;8.10;74.00;;;;;;5013575;28;20042;-69
2022/10/12 06:22:03;;;;;;;2.67;1.67;;;8.20;74.20;;;;;;5012153;28;20058;-68
2022/10/12 06:24:29;;;;;;;3.45;1.55;;;8.20;74.40;;;;;;5012290;28;20033;-69
2022/10/12 06:26:54;;;;;;;2.55;1.65;;;8.30;74.30;;;;;;5013453;28;20072;-69
2022/10/12 06:29:22;;;;;;;1.75;1.50;;;8.30;74.20;;;;;;4994608;28;20038;-68
2022/10/12 06:31:49;;;;;;;2.22;1.73;;;8.30;74.30;;;;;;5012758;28;20030;-69
2022/10/12 06:34:15;;;;;;;5.85;2.13;;;8.40;74.40;;;;;;5011067;28;20026;-69
2022/10/12 06:36:40;;;;;;;3.13;2.00;;;8.40;74.50;;;;;;4968025;28;20095;-69
2022/10/12 06:39:06;;;;;;;2.63;2.03;;;8.40;74.70;;;;;;4994842;28;20347;-69
2022/10/12 06:41:32;;;;;;;2.38;1.95;;;8.50;74.80;;;;;;5013130;28;20071;-69
2022/10/12 06:43:58;;;;;;;2.33;2.05;;;8.50;74.80;;;;;;5010687;28;20040;-68
2022/10/12 06:46:23;;;;;;;3.13;2.13;;;8.60;74.80;;;;;;5011039;28;20026;-69
2022/10/12 06:48:49;;;;;;;2.65;1.95;;;8.70;74.70;;;;;;4992355;28;20037;-68
2022/10/12 06:51:15;;;;;;;2.42;2.03;;;8.70;74.60;;;;;;4994665;28;20033;-68
2022/10/12 06:53:40;;;;;;;3.35;2.05;;;8.80;74.80;;;;;;4994245;28;20041;-68
2022/10/12 06:56:07;;;;;;;5.35;2.42;;;8.90;74.70;;;;;;4993978;28;20083;-69
2022/10/12 06:58:33;;;;;;;1.40;1.30;;;8.90;74.70;;;;;;5011962;28;20046;-69
2022/10/12 07:01:02;;;;;;;2.65;2.10;;;9.00;74.60;;;;;;5012087;28;20446;-69
2022/10/12 07:03:27;;;;;;;6.50;2.70;;;9.00;74.70;;;;;;5011754;28;20041;-70
2022/10/12 07:05:53;;;;;;;3.42;2.22;;;9.10;74.90;;;;;;5012124;28;20026;-69
2022/10/12 07:08:19;;;;;;;4.63;1.95;;;9.10;75.00;;;;;;5011818;28;20057;-69
2022/10/12 07:10:44;;;;;;;2.50;1.88;;;9.20;75.00;;;;;;5010948;28;20462;-69
2022/10/12 07:13:10;;;;;;;7.10;2.38;;;9.20;75.10;;;;;;5008478;28;20037;-70
2022/10/12 07:15:36;;;;;;;4.00;2.00;;;9.30;75.00;;;;;;5016848;28;20412;-70
2022/10/12 07:18:01;;;;;;;4.35;2.38;;;9.30;74.90;;;;;;4997248;28;20029;-70
2022/10/12 07:20:27;;;;;;;6.60;2.55;;;9.40;74.90;;;;;;5012305;28;20033;-73
2022/10/12 07:22:52;;;;;;;2.40;2.20;;;9.40;74.90;;;;;;4998506;28;20051;-69
2022/10/12 07:25:18;;;;;;;7.07;3.00;;;9.50;75.00;;;;;;5005720;28;20048;-70
2022/10/12 07:27:47;;;;;;;3.33;2.47;;;9.50;75.10;;;;;;4994478;28;20486;-69
2022/10/12 07:30:13;;;;;;;2.65;2.28;;;9.60;75.30;;;;;;5011552;28;20022;-70
2022/10/12 07:32:38;;;;;;;5.18;2.28;;;9.70;75.30;;;;;;4998013;28;20413;-70
2022/10/12 07:35:04;;;;;;;7.28;2.58;;;9.70;75.20;;;;;;5011539;28;20113;-70
2022/10/12 07:37:30;;;;;;;7.22;2.38;;;9.80;75.20;;;;;;4993265;28;20240;-70
2022/10/12 07:39:56;;;;;;;3.42;2.10;;;9.90;75.30;;;;;;5012300;28;20042;-69
2022/10/12 07:42:23;;;;;;;5.63;3.17;;;9.90;75.20;;;;;;5010928;28;20500;-68
2022/10/12 07:44:48;;;;;;;9.70;2.50;;;10.00;76.10;;;;;;5010906;28;20030;-70
2022/10/12 07:47:16;;;;;;;3.70;2.13;;;10.00;75.40;;;;;;5011420;28;20528;-70
2022/10/12 07:49:42;;;;;;;3.28;2.90;;;10.10;75.30;;;;;;5011138;28;20018;-70
2022/10/12 07:52:07;;;;;;;3.70;2.17;;;10.10;75.30;;;;;;5010781;28;20374;-71
2022/10/12 07:54:33;;;;;;;4.95;2.28;;;10.10;75.30;;;;;;4993824;28;20034;-70
2022/10/12 07:56:59;;;;;;;4.78;2.72;;;10.10;75.50;;;;;;5011149;28;20516;-66
2022/10/12 07:59:25;;;;;;;2.58;1.92;;;10.10;75.60;;;;;;5010975;28;20041;-67
2022/10/12 08:01:50;;;;;;;4.70;2.35;;;10.10;75.80;;;;;;5009635;28;20045;-68
2022/10/12 08:04:16;;;;;;;8.23;2.95;;;10.20;75.80;;;;;;5008848;28;20042;-67
2022/10/12 08:06:45;;;;;;;4.35;2.33;;;10.20;75.80;;;;;;5011216;28;20054;-67
2022/10/12 08:09:11;;;;;;;2.20;1.98;;;10.20;75.70;;;;;;5010222;28;20117;-67
2022/10/12 08:11:40;;;;;;;3.15;2.60;;;10.30;75.80;;;;;;5003442;28;20526;-67
2022/10/12 08:14:13;;;;;;;2.72;2.17;;;10.30;75.80;;;;;;5009518;28;20030;-68
2022/10/12 08:16:40;;;;;;;3.15;2.33;;;10.40;75.70;;;;;;5009328;28;20112;-70
2022/10/12 08:19:05;;;;;;;5.90;2.72;;;10.40;75.50;;;;;;5009718;28;20107;-69
2022/10/12 08:21:31;;;;;;;2.28;1.80;;;10.50;75.40;;;;;;4989259;28;20049;-69
2022/10/12 08:23:57;;;;;;;6.05;2.22;;;10.70;75.30;;;;;;5010009;28;20405;-69
2022/10/12 08:26:22;;;;;;;8.57;3.60;;;10.80;75.20;;;;;;5011681;28;20443;-70
2022/10/12 08:28:48;;;;;;;5.32;3.22;;;11.00;75.20;;;;;;5011115;28;20058;-70
2022/10/12 08:31:16;;;;;;;10.10;2.85;;;11.00;75.10;;;;;;5010422;28;20513;-70
2022/10/12 08:33:42;;;;;;;5.10;3.08;;;11.20;75.00;;;;;;5010309;28;20057;-69
2022/10/12 08:36:09;;;;;;;6.95;3.15;;;11.30;74.80;;;;;;5009222;28;20378;-69
2022/10/12 08:38:37;;;;;;;4.70;2.72;;;11.40;74.70;;;;;;5008509;28;20030;-69
2022/10/12 08:41:22;;;;;;;4.82;2.90;;;11.60;74.70;;;;;;4991743;28;20088;-69
2022/10/12 08:43:51;;;;;;;7.32;3.60;;;11.70;74.40;;;;;;5009209;28;20109;-70
2022/10/12 08:46:23;;;;;;;6.03;2.90;;;11.80;74.20;;;;;;5008514;28;21157;-69
2022/10/12 08:48:56;;;;;;;5.55;3.47;;;11.90;74.10;;;;;;5005916;28;20069;-70
2022/10/12 08:51:25;;;;;;;8.57;3.13;;;11.90;73.80;;;;;;5005972;28;20037;-70
2022/10/12 08:54:01;;;;;;;4.30;2.85;;;12.00;73.80;;;;;;5002878;28;20029;-69
2022/10/12 08:56:28;;;;;;;6.13;3.45;;;12.10;73.70;;;;;;5006957;28;20042;-70
2022/10/12 08:58:54;;;;;;;8.85;3.53;;;12.10;73.70;;;;;;5006057;28;20160;-70
2022/10/12 09:01:58;;;;;;;3.00;2.45;;;12.10;73.60;;;;;;4989507;28;20125;-71
2022/10/12 09:04:47;;;;;;;5.65;2.72;;;12.20;73.50;;;;;;4983616;28;20111;-70
2022/10/12 09:07:33;;;;;;;2.97;2.60;;;12.10;73.50;;;;;;5008305;28;20030;-70
2022/10/12 09:10:10;;;;;;;6.82;3.63;;;12.20;73.60;;;;;;4990284;28;20068;-71
2022/10/12 09:12:47;;;;;;;8.43;3.08;;;12.30;73.70;;;;;;5004629;28;20029;-70
2022/10/12 09:15:23;;;;;;;11.52;2.72;;;12.40;73.60;;;;;;5001785;28;20037;-70
2022/10/12 09:17:52;;;;;;;6.03;2.88;;;12.60;73.00;;;;;;4985182;28;20037;-70
2022/10/12 09:20:22;;;;;;;6.30;3.58;;;12.70;72.40;;;;;;5008307;28;20108;-68
2022/10/12 09:22:50;;;;;;;5.63;2.85;;;12.90;72.20;;;;;;4990570;28;20493;-70
2022/10/12 09:25:22;;;;;;;14.65;3.22;;;13.00;72.00;;;;;;4990723;28;20037;-70
2022/10/12 09:27:47;;;;;;;9.07;3.72;;;13.20;71.90;;;;;;4985934;28;20108;-68
2022/10/12 09:30:15;;;;;;;3.88;2.30;;;13.30;71.80;;;;;;5007425;28;20066;-69
2022/10/12 09:32:47;;;;;;;5.78;2.83;;;13.50;71.60;;;;;;5002479;28;20032;-70
2022/10/12 09:35:13;;;;;;;3.72;2.50;;;13.60;71.00;;;;;;4991957;28;20030;-69
2022/10/12 09:37:39;;;;;;;6.95;3.17;;;13.80;70.80;;;;;;4986661;28;20030;-70
2022/10/12 09:40:06;;;;;;;6.80;2.95;;;14.00;70.40;;;;;;5010372;28;20029;-69
2022/10/12 09:42:33;;;;;;;5.68;3.28;;;14.10;70.10;;;;;;5014448;28;20026;-69
2022/10/12 09:45:17;;;;;;;6.90;3.10;;;14.30;69.90;;;;;;5008930;28;20508;-69
2022/10/12 09:48:08;;;;;;;7.25;2.90;;;14.50;69.50;;;;;;4991876;28;20030;-69
2022/10/12 09:50:42;;;;;;;5.47;3.00;;;14.60;69.40;;;;;;5012261;28;20038;-69
2022/10/12 09:53:14;;;;;;;4.03;2.80;;;14.80;69.20;;;;;;5009467;28;20485;-70
2022/10/12 09:55:39;;;;;;;3.25;2.55;;;14.90;68.90;;;;;;5013454;28;20041;-70
2022/10/12 09:58:18;;;;;;;4.75;2.20;;;15.10;68.70;;;;;;5026830;28;20389;-69
2022/10/12 10:00:44;;;;;;;4.65;2.45;;;15.20;68.10;;;;;;5021541;28;20033;-69
2022/10/12 10:03:22;;;;;;;4.85;2.88;;;15.40;67.90;;;;;;5001357;28;20029;-69
2022/10/12 10:06:02;;;;;;;5.13;2.95;;;15.40;67.50;;;;;;5008602;28;20022;-69
2022/10/12 10:08:27;;;;;;;4.20;2.40;;;15.60;67.40;;;;;;5007074;28;20025;-69
2022/10/12 10:10:55;;;;;;;4.30;3.13;;;15.60;67.10;;;;;;5013322;28;20495;-69
2022/10/12 10:13:27;;;;;;;4.32;3.22;;;15.80;67.10;;;;;;5013326;28;20389;-70
2022/10/12 10:16:08;;;;;;;4.47;3.35;;;15.90;65.90;;;;;;5014333;28;20453;-70
2022/10/12 10:18:37;;;;;;;7.85;3.65;;;16.00;65.10;;;;;;5005219;28;20034;-69
2022/10/12 10:21:08;;;;;;;4.88;2.22;;;16.00;65.30;;;;;;5014305;28;20033;-69
2022/10/12 10:23:37;;;;;;;6.80;2.97;;;16.10;65.30;;;;;;5013185;28;20192;-70
2022/10/12 10:26:12;;;;;;;3.15;2.55;;;16.30;65.30;;;;;;5014711;28;20021;-70
2022/10/12 10:28:40;;;;;;;4.15;2.42;;;16.50;65.00;;;;;;5013367;28;20033;-69
2022/10/12 10:31:20;;;;;;;4.40;2.28;;;16.70;64.70;;;;;;5015428;28;20075;-69
2022/10/12 10:34:09;;;;;;;5.65;2.90;;;16.90;64.40;;;;;;5011404;28;20064;-69
2022/10/12 10:36:43;;;;;;;2.88;2.28;;;17.20;63.70;;;;;;5013732;28;20057;-70
2022/10/12 10:39:31;;;;;;;5.03;3.38;;;17.30;63.20;;;;;;5017724;28;20026;-69
2022/10/12 10:42:09;;;;;;;4.22;3.28;;;17.50;62.90;;;;;;5012673;28;20497;-70
2022/10/12 10:44:36;;;;;;;7.35;3.75;;;17.70;62.30;;;;;;5010577;28;20052;-69
2022/10/12 10:47:12;;;;;;;4.95;2.67;;;17.80;61.60;;;;;;5013181;28;20076;-71
2022/10/12 10:49:48;;;;;;;5.47;3.78;;;17.90;61.30;;;;;;4995082;28;20041;-70
2022/10/12 10:52:30;;;;;;;5.05;2.67;;;18.10;61.20;;;;;;5013008;28;20026;-70
2022/10/12 10:55:19;;;;;;;8.35;3.15;;;18.10;60.60;;;;;;5007598;28;20044;-70
2022/10/12 10:58:13;;;;;;;11.63;3.72;;;17.90;60.60;;;;;;5008592;28;20037;-69
2022/10/12 11:00:42;;;;;;;6.43;3.20;;;17.90;59.90;;;;;;4995136;28;20049;-70
2022/10/12 11:03:27;;;;;;;6.03;3.13;;;17.90;60.50;;;;;;5012444;28;20034;-69
2022/10/12 11:06:02;;;;;;;5.03;3.03;;;17.90;60.10;;;;;;5009826;28;20033;-69
2022/10/12 11:08:29;;;;;;;6.47;3.95;;;17.90;59.70;;;;;;5010572;28;20021;-69
2022/10/12 11:10:58;;;;;;;7.32;4.35;;;17.80;60.00;;;;;;5011567;28;20060;-69
2022/10/12 11:13:32;;;;;;;6.07;3.70;;;17.50;59.70;;;;;;5009265;28;20037;-69
2022/10/12 11:16:50;;;;;;;4.65;3.42;;;17.30;60.50;;;;;;5009909;28;20120;-69
2022/10/12 11:19:18;;;;;;;4.00;3.05;;;17.30;60.60;;;;;;4968767;28;20039;-69
2022/10/12 11:21:58;;;;;;;9.48;4.13;;;17.30;60.60;;;;;;4970686;28;20050;-70
2022/10/12 11:24:30;;;;;;;5.82;3.25;;;17.60;60.40;;;;;;4993538;28;20038;-70
2022/10/12 11:27:02;;;;;;;5.60;3.40;;;17.70;60.30;;;;;;5014974;28;20076;-69
2022/10/12 11:29:28;;;;;;;4.38;3.53;;;17.80;59.80;;;;;;5017676;28;20044;-69
2022/10/12 11:32:21;;;;;;;5.35;3.40;;;18.00;58.80;;;;;;5012979;28;20113;-69
2022/10/12 11:34:52;;;;;;;4.65;3.53;;;18.20;59.00;;;;;;5012770;28;20528;-69
2022/10/12 11:37:23;;;;;;;4.65;2.97;;;18.50;58.70;;;;;;5010044;28;20022;-69
2022/10/12 11:39:52;;;;;;;5.18;3.17;;;18.60;57.60;;;;;;5011622;28;20105;-69
2022/10/12 11:42:48;;;;;;;3.83;2.97;;;18.70;57.40;;;;;;4995360;28;20030;-69
2022/10/12 11:45:28;;;;;;;9.70;3.30;;;18.90;57.50;;;;;;5006636;28;20559;-71
2022/10/12 11:48:06;;;;;;;8.43;3.25;;;19.10;57.30;;;;;;5005466;28;20112;-69
2022/10/12 11:50:37;;;;;;;4.93;3.10;;;19.20;56.10;;;;;;5005966;28;20041;-69
2022/10/12 11:53:07;;;;;;;7.75;3.67;;;19.40;56.40;;;;;;5007592;28;20429;-69
2022/10/12 11:55:52;;;;;;;4.68;2.75;;;19.60;55.20;;;;;;5012314;28;20030;-69
2022/10/12 11:58:20;;;;;;;6.30;2.67;;;19.70;53.90;;;;;;5010182;28;20034;-69
2022/10/12 12:01:05;;;;;;;2.72;2.03;;;19.60;53.80;;;;;;5018910;28;20484;-70
2022/10/12 12:03:42;;;;;;;5.70;1.88;;;19.70;54.20;;;;;;5008545;28;20037;-69
2022/10/12 12:06:29;;;;;;;5.88;2.17;;;19.70;53.10;;;;;;5011095;28;20097;-69
2022/10/12 12:09:17;;;;;;;2.65;2.03;;;19.70;53.10;;;;;;5012894;28;20555;-69
2022/10/12 12:11:43;;;;;;;3.90;2.45;;;19.80;53.10;;;;;;5013387;28;20022;-72
2022/10/12 12:14:23;;;;;;;3.63;2.20;;;20.00;53.00;;;;;;5006983;28;20105;-69
2022/10/12 12:16:50;;;;;;;3.55;1.88;;;20.20;52.90;;;;;;5012246;28;20385;-69
2022/10/12 12:19:35;;;;;;;3.58;2.30;;;20.40;52.40;;;;;;5012208;28;20045;-70
2022/10/12 12:22:25;;;;;;;1.95;1.50;;;20.40;52.20;;;;;;5002156;28;20053;-70
2022/10/12 12:24:52;;;;;;;15.63;2.63;;;20.10;52.30;;;;;;5011398;28;20045;-70
2022/10/12 12:27:22;;;;;;;4.78;1.80;;;20.00;52.50;;;;;;5008956;28;20081;-69
2022/10/12 12:29:52;;;;;;;12.68;2.75;;;19.90;52.30;;;;;;5008966;28;20054;-69
2022/10/12 12:32:18;;;;;;;1.80;1.55;;;19.70;52.70;;;;;;5010944;28;20018;-69
2022/10/12 12:34:54;;;;;;;2.20;2.00;;;19.80;52.60;;;;;;5003206;28;20038;-69
2022/10/12 12:37:23;;;;;;;4.13;2.05;;;19.80;52.50;;;;;;4992878;28;20473;-69
2022/10/12 12:39:57;;;;;;;4.75;2.38;;;20.00;52.50;;;;;;4992220;28;20041;-69
2022/10/12 12:42:30;;;;;;;6.35;2.88;;;20.10;52.50;;;;;;5010203;28;20066;-69
2022/10/12 12:45:16;;;;;;;3.03;2.58;;;20.10;52.20;;;;;;5010486;28;20023;-69
2022/10/12 12:47:42;;;;;;;5.85;2.60;;;19.90;52.60;;;;;;5006950;28;20042;-69
2022/10/12 12:50:31;;;;;;;4.65;1.58;;;19.60;53.00;;;;;;4988493;28;20033;-69
2022/10/12 12:53:12;;;;;;;5.43;1.45;;;19.50;53.30;;;;;;5006169;28;20033;-68
2022/10/12 12:56:01;;;;;;;6.40;2.40;;;19.40;53.70;;;;;;5008140;28;20374;-68
2022/10/12 12:58:45;;;;;;;3.90;2.35;;;19.30;53.40;;;;;;5010081;28;20132;-68
2022/10/12 13:01:11;;;;;;;11.40;2.05;;;19.00;53.10;;;;;;5011016;28;20413;-69
2022/10/12 13:04:13;;;;;;;5.65;2.35;;;18.80;53.60;;;;;;4993818;28;20041;-69
2022/10/12 13:06:53;;;;;;;4.60;1.75;;;18.50;54.10;;;;;;5009516;28;20070;-69
2022/10/12 13:09:55;;;;;;;3.25;1.65;;;18.40;54.60;;;;;;5013070;28;20021;-69